createdAt,value
2023-04-18T00:01:22.366Z,98134.16
2023-04-18T00:04:11.552Z,98128.44
2023-04-18T00:07:02.085Z,98125.13
2023-04-18T00:09:51.254Z,98122.03
2023-04-18T00:12:40.496Z,98125.13
2023-04-18T00:15:30.549Z,98122.81
2023-04-18T00:18:19.496Z,98118.94
2023-04-18T00:21:08.586Z,98117.69
2023-04-18T00:23:59.071Z,98120.72
2023-04-18T00:26:48.918Z,98132.00
2023-04-18T00:29:37.733Z,98114.16
2023-04-18T00:32:26.748Z,98115.97
2023-04-18T00:35:15.871Z,98120.78
2023-04-18T00:38:04.690Z,98115.88
2023-04-18T00:40:54.857Z,98119.66
2023-04-18T00:43:43.782Z,98114.41
2023-04-18T00:46:32.755Z,98120.13
2023-04-18T00:49:22.959Z,98118.69
2023-04-18T00:52:13.243Z,98128.88
2023-04-18T00:55:03.836Z,98123.44
2023-04-18T00:57:54.425Z,98126.69
2023-04-18T01:00:43.628Z,98123.53
2023-04-18T01:03:34.839Z,98118.63
2023-04-18T01:06:24.513Z,98128.94
2023-04-18T01:09:14.736Z,98124.03
2023-04-18T01:12:04.267Z,98117.00
2023-04-18T01:14:54.682Z,98117.28
2023-04-18T01:17:43.650Z,98115.09
2023-04-18T01:20:32.671Z,98115.78
2023-04-18T01:23:22.384Z,98114.78
2023-04-18T01:26:13.217Z,98120.66
2023-04-18T01:29:02.227Z,98116.16
2023-04-18T01:31:52.349Z,98111.63
2023-04-18T01:34:41.514Z,98112.00
2023-04-18T01:37:32.459Z,98115.84
2023-04-18T01:40:22.855Z,98119.16
2023-04-18T01:43:13.466Z,98124.34
2023-04-18T01:46:02.452Z,98121.22
2023-04-18T01:48:51.345Z,98124.50
2023-04-18T01:51:43.167Z,98124.50
2023-04-18T01:54:32.088Z,98129.03
2023-04-18T01:57:20.953Z,98127.41
2023-04-18T02:00:14.616Z,98121.22
2023-04-18T02:03:04.212Z,98116.81
2023-04-18T02:05:53.931Z,98123.47
2023-04-18T02:08:42.715Z,98114.97
2023-04-18T02:11:31.697Z,98119.97
2023-04-18T02:14:20.499Z,98122.00
2023-04-18T02:17:10.685Z,98120.66
2023-04-18T02:20:00.110Z,98114.56
2023-04-18T02:22:49.462Z,98117.03
2023-04-18T02:25:38.322Z,98121.81
2023-04-18T02:28:27.252Z,98125.16
2023-04-18T02:31:17.072Z,98119.31
2023-04-18T02:34:07.830Z,98112.81
2023-04-18T02:36:56.754Z,98125.00
2023-04-18T02:39:45.832Z,98114.72
2023-04-18T02:42:34.922Z,98112.88
2023-04-18T02:45:23.782Z,98110.75
2023-04-18T02:48:12.782Z,98115.88
2023-04-18T02:51:05.421Z,98115.66
2023-04-18T02:53:57.097Z,98124.84
2023-04-18T02:56:48.768Z,98111.31
2023-04-18T02:59:45.132Z,98118.28
2023-04-18T03:02:54.180Z,98118.66
2023-04-18T03:06:07.927Z,98120.03
2023-04-18T03:08:57.520Z,98116.06
2023-04-18T03:11:47.646Z,98122.72
2023-04-18T03:14:37.966Z,98124.25
2023-04-18T03:17:27.760Z,98121.03
2023-04-18T03:20:17.068Z,98122.88
2023-04-18T03:23:07.211Z,98120.25
2023-04-18T03:25:57.203Z,98119.66
2023-04-18T03:28:46.442Z,98117.91
2023-04-18T03:31:35.788Z,98121.47
2023-04-18T03:34:24.624Z,98116.19
2023-04-18T03:37:15.056Z,98113.31
2023-04-18T03:40:13.138Z,98122.78
2023-04-18T03:43:03.450Z,98121.25
2023-04-18T03:45:53.784Z,98120.19
2023-04-18T03:48:42.983Z,98118.81
2023-04-18T03:51:43.223Z,98115.38
2023-04-18T03:54:32.234Z,98125.53
2023-04-18T03:57:22.464Z,98128.09
2023-04-18T04:00:14.127Z,98128.31
2023-04-18T04:03:06.964Z,98131.09
2023-04-18T04:05:56.837Z,98133.22
2023-04-18T04:08:46.020Z,98129.53
2023-04-18T04:11:37.172Z,98134.91
2023-04-18T04:14:30.119Z,98144.81
2023-04-18T04:17:19.051Z,98139.88
2023-04-18T04:20:09.782Z,98134.22
2023-04-18T04:22:59.988Z,98138.19
2023-04-18T04:25:49.798Z,98147.63
2023-04-18T04:28:55.916Z,98139.16
2023-04-18T04:31:48.505Z,98152.06
2023-04-18T04:34:46.802Z,98142.81
2023-04-18T04:37:35.947Z,98146.00
2023-04-18T04:40:35.004Z,98150.59
2023-04-18T04:43:31.507Z,98154.03
2023-04-18T04:46:20.919Z,98147.69
2023-04-18T04:49:13.352Z,98155.41
2023-04-18T04:52:02.870Z,98146.88
2023-04-18T04:54:53.061Z,98140.44
2023-04-18T04:57:44.780Z,98146.97
2023-04-18T05:00:54.047Z,98153.53
2023-04-18T05:03:43.477Z,98144.19
2023-04-18T05:06:34.599Z,98146.88
2023-04-18T05:09:23.560Z,98152.34
2023-04-18T05:12:12.480Z,98138.03
2023-04-18T05:15:01.465Z,98141.41
2023-04-18T05:17:50.623Z,98151.31
2023-04-18T05:20:40.146Z,98151.75
2023-04-18T05:23:30.577Z,98154.63
2023-04-18T05:26:19.757Z,98154.84
2023-04-18T05:29:11.367Z,98161.56
2023-04-18T05:32:00.462Z,98161.72
2023-04-18T05:34:53.160Z,98156.97
2023-04-18T05:37:42.902Z,98157.56
2023-04-18T05:40:33.247Z,98153.06
2023-04-18T05:43:23.330Z,98158.88
2023-04-18T05:46:13.352Z,98157.81
2023-04-18T05:49:03.428Z,98159.94
2023-04-18T05:51:53.207Z,98158.50
2023-04-18T05:54:42.219Z,98164.53
2023-04-18T05:57:33.206Z,98153.78
2023-04-18T06:00:23.340Z,98161.75
2023-04-18T06:03:12.457Z,98163.34
2023-04-18T06:06:01.637Z,98168.88
2023-04-18T06:08:51.913Z,98165.66
2023-04-18T06:11:40.817Z,98173.09
2023-04-18T06:14:31.226Z,98177.69
2023-04-18T06:17:21.357Z,98178.28
2023-04-18T06:20:11.872Z,98182.03
2023-04-18T06:23:05.005Z,98180.81
2023-04-18T06:25:53.987Z,98189.47
2023-04-18T06:28:42.993Z,98190.75
2023-04-18T06:31:33.500Z,98196.59
2023-04-18T06:34:22.444Z,98201.81
2023-04-18T06:37:12.117Z,98205.22
2023-04-18T06:40:01.008Z,98213.97
2023-04-18T06:42:50.258Z,98215.06
2023-04-18T06:45:40.071Z,98211.34
2023-04-18T06:48:31.427Z,98215.44
2023-04-18T06:51:21.013Z,98215.25
2023-04-18T06:54:09.936Z,98215.47
2023-04-18T06:56:59.208Z,98216.75
2023-04-18T06:59:49.044Z,98215.97
2023-04-18T07:02:40.020Z,98215.56
2023-04-18T07:05:31.330Z,98215.56
2023-04-18T07:08:20.873Z,98219.38
2023-04-18T07:11:10.076Z,98225.91
2023-04-18T07:13:59.482Z,98213.59
2023-04-18T07:16:49.373Z,98225.34
2023-04-18T07:19:39.334Z,98227.63
2023-04-18T07:22:29.516Z,98219.56
2023-04-18T07:25:19.241Z,98219.88
2023-04-18T07:28:09.276Z,98213.97
2023-04-18T07:30:58.250Z,98209.94
2023-04-18T07:33:49.005Z,98209.59
2023-04-18T07:36:39.155Z,98217.44
2023-04-18T07:39:29.480Z,98217.66
2023-04-18T07:42:18.542Z,98217.16
2023-04-18T07:45:08.778Z,98217.09
2023-04-18T07:47:57.663Z,98215.13
2023-04-18T07:50:46.969Z,98225.16
2023-04-18T07:53:35.890Z,98219.84
2023-04-18T07:56:26.426Z,98230.19
2023-04-18T07:59:17.066Z,98227.78
2023-04-18T08:02:07.357Z,98232.81
2023-04-18T08:04:56.527Z,98227.28
2023-04-18T08:07:47.162Z,98234.69
2023-04-18T08:10:36.865Z,98226.38
2023-04-18T08:13:27.190Z,98225.25
2023-04-18T08:16:17.452Z,98232.28
2023-04-18T08:19:07.036Z,98230.56
2023-04-18T08:21:56.004Z,98239.94
2023-04-18T08:25:01.043Z,98231.31
2023-04-18T08:27:53.086Z,98236.66
2023-04-18T08:30:44.085Z,98233.03
2023-04-18T08:33:33.118Z,98236.19
2023-04-18T08:36:22.572Z,98243.78
2023-04-18T08:39:15.642Z,98243.25
2023-04-18T08:42:07.441Z,98244.41
2023-04-18T08:44:57.976Z,98244.22
2023-04-18T08:47:48.452Z,98237.91
2023-04-18T08:50:37.484Z,98248.56
2023-04-18T08:53:29.369Z,98249.63
2023-04-18T08:56:22.349Z,98246.50
2023-04-18T08:59:11.610Z,98249.41
2023-04-18T09:02:01.625Z,98250.41
2023-04-18T09:04:53.597Z,98254.84
2023-04-18T09:07:43.665Z,98260.69
2023-04-18T09:10:36.568Z,98255.47
2023-04-18T09:13:41.099Z,98265.44
2023-04-18T09:16:46.747Z,98250.13
2023-04-18T09:19:36.024Z,98253.22
2023-04-18T09:22:27.183Z,98251.31
2023-04-18T09:25:27.503Z,98243.09
2023-04-18T09:28:26.953Z,98252.81
2023-04-18T09:31:17.653Z,98249.38
2023-04-18T09:34:06.973Z,98247.44
2023-04-18T09:37:10.743Z,98248.78
2023-04-18T09:40:01.294Z,98256.88
2023-04-18T09:42:53.116Z,98256.06
2023-04-18T09:45:43.441Z,98246.41
2023-04-18T09:48:33.386Z,98253.84
2023-04-18T09:51:23.128Z,98252.16
2023-04-18T09:54:16.773Z,98243.59
2023-04-18T09:57:13.569Z,98250.94
2023-04-18T10:00:17.518Z,98246.81
2023-04-18T10:03:09.819Z,98247.16
2023-04-18T10:05:59.114Z,98243.44
2023-04-18T10:08:49.997Z,98244.53
2023-04-18T10:11:39.527Z,98243.84
2023-04-18T10:14:32.939Z,98242.13
2023-04-18T10:17:22.508Z,98235.63
2023-04-18T10:20:21.157Z,98238.34
2023-04-18T10:23:38.649Z,98235.00
2023-04-18T10:26:50.272Z,98232.13
2023-04-18T10:29:51.881Z,98226.38
2023-04-18T10:32:42.643Z,98226.47
2023-04-18T10:35:31.680Z,98226.81
2023-04-18T10:38:25.431Z,98228.47
2023-04-18T10:41:27.104Z,98215.41
2023-04-18T10:44:23.350Z,98231.00
2023-04-18T10:47:23.614Z,98224.41
2023-04-18T10:50:14.059Z,98230.19
2023-04-18T10:53:03.337Z,98232.13
2023-04-18T10:55:58.246Z,98223.00
2023-04-18T10:58:52.971Z,98215.25
2023-04-18T11:01:47.591Z,98219.09
2023-04-18T11:04:44.676Z,98212.06
2023-04-18T11:07:36.081Z,98217.13
2023-04-18T11:10:27.121Z,98213.84
2023-04-18T11:13:17.130Z,98209.16
2023-04-18T11:16:06.649Z,98210.06
2023-04-18T11:18:55.989Z,98212.66
2023-04-18T11:21:46.465Z,98217.97
2023-04-18T11:24:35.751Z,98217.19
2023-04-18T11:27:27.024Z,98212.41
2023-04-18T11:30:17.174Z,98214.97
2023-04-18T11:33:08.898Z,98225.84
2023-04-18T11:35:59.830Z,98212.91
2023-04-18T11:38:51.735Z,98213.50
2023-04-18T11:41:44.286Z,98206.91
2023-04-18T11:44:36.060Z,98206.06
2023-04-18T11:47:27.034Z,98208.25
2023-04-18T11:50:16.605Z,98213.44
2023-04-18T11:53:06.266Z,98209.66
2023-04-18T11:55:58.516Z,98213.88
2023-04-18T11:58:48.383Z,98210.84
2023-04-18T12:01:38.383Z,98212.00
2023-04-18T12:04:27.793Z,98206.97
2023-04-18T12:07:32.889Z,98218.69
2023-04-18T12:10:29.869Z,98219.00
2023-04-18T12:13:26.997Z,98205.09
2023-04-18T12:16:16.106Z,98195.34
2023-04-18T12:19:05.955Z,98205.34
2023-04-18T12:22:01.512Z,98193.59
2023-04-18T12:25:27.820Z,98197.25
2023-04-18T12:28:18.641Z,98196.56
2023-04-18T12:31:08.965Z,98193.38
2023-04-18T12:34:00.112Z,98193.34
2023-04-18T12:36:49.405Z,98196.09
2023-04-18T12:39:39.290Z,98185.53
2023-04-18T12:42:28.207Z,98177.19
2023-04-18T12:45:18.561Z,98181.16
2023-04-18T12:48:11.848Z,98180.25
2023-04-18T12:51:01.562Z,98179.16
2023-04-18T12:53:50.661Z,98187.66
2023-04-18T12:56:40.892Z,98193.19
2023-04-18T12:59:30.186Z,98184.41
2023-04-18T13:02:19.347Z,98191.72
2023-04-18T13:05:12.769Z,98198.44
2023-04-18T13:10:53.845Z,98183.91
2023-04-18T13:13:42.661Z,98186.69
2023-04-18T13:16:31.796Z,98184.94
2023-04-18T13:19:20.689Z,98192.72
2023-04-18T13:22:10.934Z,98180.03
2023-04-18T13:25:00.615Z,98186.72
2023-04-18T13:27:50.351Z,98190.72
2023-04-18T13:30:39.312Z,98180.16
2023-04-18T13:33:29.065Z,98177.78
2023-04-18T13:36:18.846Z,98177.47
2023-04-18T13:39:09.623Z,98179.31
2023-04-18T13:41:58.589Z,98173.47
2023-04-18T13:44:48.472Z,98180.34
2023-04-18T13:47:37.572Z,98172.00
2023-04-18T13:50:26.542Z,98171.38
2023-04-18T13:53:16.249Z,98167.31
2023-04-18T13:56:07.540Z,98181.78
2023-04-18T13:58:56.816Z,98176.47
2023-04-18T14:01:46.574Z,98185.91
2023-04-18T14:04:36.584Z,98178.22
2023-04-18T14:07:26.393Z,98191.78
2023-04-18T14:10:15.710Z,98181.09
2023-04-18T14:13:06.234Z,98189.63
2023-04-18T14:15:55.445Z,98188.94
2023-04-18T14:18:44.420Z,98203.50
2023-04-18T14:21:33.512Z,98208.56
2023-04-18T14:24:23.416Z,98203.41
2023-04-18T14:27:13.389Z,98209.22
2023-04-18T14:30:04.313Z,98206.97
2023-04-18T14:32:53.269Z,98201.84
2023-04-18T14:35:42.645Z,98210.28
2023-04-18T14:38:31.625Z,98196.63
2023-04-18T14:41:21.086Z,98209.66
2023-04-18T14:44:10.736Z,98204.78
2023-04-18T14:47:05.629Z,98205.78
2023-04-18T14:49:54.536Z,98210.47
2023-04-18T14:52:43.684Z,98217.19
2023-04-18T14:55:34.448Z,98209.94
2023-04-18T14:58:23.468Z,98209.28
2023-04-18T15:01:12.510Z,98204.50
2023-04-18T15:04:04.932Z,98204.09
2023-04-18T15:06:53.995Z,98200.41
2023-04-18T15:09:44.475Z,98199.44
2023-04-18T15:12:34.685Z,98205.19
2023-04-18T15:15:25.151Z,98204.88
2023-04-18T15:18:14.687Z,98208.38
2023-04-18T15:21:05.380Z,98210.28
2023-04-18T15:23:54.356Z,98212.41
2023-04-18T15:26:43.830Z,98205.63
2023-04-18T15:29:33.600Z,98206.56
2023-04-18T15:32:23.163Z,98209.84
2023-04-18T15:35:13.729Z,98206.31
2023-04-18T15:38:04.217Z,98216.22
2023-04-18T15:40:53.448Z,98213.53
2023-04-18T15:43:42.930Z,98223.78
2023-04-18T15:46:32.766Z,98221.56
2023-04-18T15:49:22.042Z,98220.75
2023-04-18T15:52:10.948Z,98219.13
2023-04-18T15:55:01.769Z,98223.31
2023-04-18T15:57:50.814Z,98217.25
2023-04-18T16:00:39.958Z,98233.69
2023-04-18T16:03:29.019Z,98221.88
2023-04-18T16:06:21.299Z,98222.34
2023-04-18T16:09:10.154Z,98223.81
2023-04-18T16:12:01.545Z,98228.44
2023-04-18T16:14:50.648Z,98222.81
2023-04-18T16:17:39.826Z,98235.34
2023-04-18T16:20:29.125Z,98229.09
2023-04-18T16:23:20.251Z,98232.13
2023-04-18T16:26:09.682Z,98231.84
2023-04-18T16:29:00.127Z,98231.50
2023-04-18T16:31:51.559Z,98232.75
2023-04-18T16:34:40.799Z,98225.38
2023-04-18T16:37:29.752Z,98234.84
2023-04-18T16:40:18.663Z,98231.47
2023-04-18T16:43:07.600Z,98236.91
2023-04-18T16:46:00.784Z,98236.47
2023-04-18T16:48:51.122Z,98240.16
2023-04-18T16:51:41.346Z,98246.06
2023-04-18T16:54:30.622Z,98241.84
2023-04-18T16:57:19.577Z,98252.28
2023-04-18T17:00:13.469Z,98244.41
2023-04-18T17:03:06.819Z,98244.44
2023-04-18T17:05:56.069Z,98258.19
2023-04-18T17:08:45.786Z,98260.69
2023-04-18T17:11:39.576Z,98259.94
2023-04-18T17:14:28.943Z,98264.56
2023-04-18T17:17:17.867Z,98265.97
2023-04-18T17:20:09.968Z,98267.75
2023-04-18T17:22:59.409Z,98257.81
2023-04-18T17:25:48.461Z,98263.06
2023-04-18T17:28:38.866Z,98263.69
2023-04-18T17:31:28.513Z,98263.88
2023-04-18T17:34:17.552Z,98268.75
2023-04-18T17:37:08.229Z,98271.84
2023-04-18T17:39:58.350Z,98266.97
2023-04-18T17:42:47.309Z,98268.16
2023-04-18T17:45:36.350Z,98272.47
2023-04-18T17:48:25.894Z,98274.25
2023-04-18T17:51:16.274Z,98282.72
2023-04-18T17:54:09.666Z,98277.47
2023-04-18T17:56:58.763Z,98278.03
2023-04-18T17:59:47.928Z,98286.53
2023-04-18T18:02:37.194Z,98288.59
2023-04-18T18:05:27.613Z,98285.03
2023-04-18T18:08:17.167Z,98291.38
2023-04-18T18:11:07.772Z,98294.66
2023-04-18T18:13:57.461Z,98302.63
2023-04-18T18:16:46.772Z,98309.66
2023-04-18T18:19:37.150Z,98291.63
2023-04-18T18:22:26.275Z,98300.66
2023-04-18T18:25:15.457Z,98308.63
2023-04-18T18:28:07.187Z,98310.28
2023-04-18T18:30:56.217Z,98311.03
2023-04-18T18:33:45.370Z,98314.75
2023-04-18T18:36:48.153Z,98318.75
2023-04-18T18:39:37.741Z,98315.00
2023-04-18T18:42:26.799Z,98321.91
2023-04-18T18:45:23.921Z,98322.22
2023-04-18T18:48:14.762Z,98325.78
2023-04-18T18:51:06.745Z,98321.72
2023-04-18T18:53:56.780Z,98330.94
2023-04-18T18:56:47.884Z,98330.34
2023-04-18T18:59:36.888Z,98333.59
2023-04-18T19:02:38.187Z,98335.16
2023-04-18T19:05:28.087Z,98335.81
2023-04-18T19:08:24.896Z,98339.66
2023-04-18T19:11:21.045Z,98337.69
2023-04-18T19:14:14.384Z,98342.72
2023-04-18T19:17:08.656Z,98351.50
2023-04-18T19:20:04.426Z,98348.69
2023-04-18T19:22:54.428Z,98345.09
2023-04-18T19:25:47.380Z,98347.09
2023-04-18T19:28:47.995Z,98346.59
2023-04-18T19:31:37.744Z,98352.44
2023-04-18T19:34:28.744Z,98340.84
2023-04-18T19:37:27.102Z,98349.00
2023-04-18T19:40:16.260Z,98346.88
2023-04-18T19:43:05.340Z,98351.38
2023-04-18T19:45:55.369Z,98344.69
2023-04-18T19:48:44.858Z,98341.13
2023-04-18T19:51:44.843Z,98348.13
2023-04-18T19:54:42.180Z,98344.59
2023-04-18T19:57:42.156Z,98341.72
2023-04-18T20:00:40.968Z,98334.25
2023-04-18T20:03:46.130Z,98347.63
2023-04-18T20:06:45.686Z,98348.44
2023-04-18T20:09:35.106Z,98342.59
2023-04-18T20:12:25.689Z,98339.16
2023-04-18T20:15:14.850Z,98343.94
2023-04-18T20:18:03.863Z,98338.38
2023-04-18T20:20:52.862Z,98331.94
2023-04-18T20:23:42.727Z,98338.81
2023-04-18T20:26:31.620Z,98343.47
2023-04-18T20:29:22.062Z,98346.66
2023-04-18T20:32:13.076Z,98341.47
2023-04-18T20:35:02.828Z,98337.88
2023-04-18T20:37:51.691Z,98348.97
2023-04-18T20:40:42.720Z,98342.03
2023-04-18T20:43:37.297Z,98344.03
2023-04-18T20:46:27.664Z,98338.59
2023-04-18T20:49:16.790Z,98337.47
2023-04-18T20:52:09.710Z,98340.09
2023-04-18T20:54:58.728Z,98340.63
2023-04-18T20:57:47.865Z,98339.91
2023-04-18T21:00:37.182Z,98335.06
2023-04-18T21:03:28.424Z,98342.34
2023-04-18T21:06:19.071Z,98341.88
2023-04-18T21:09:08.449Z,98336.53
2023-04-18T21:11:58.443Z,98338.72
2023-04-18T21:14:48.065Z,98326.69
2023-04-18T21:17:36.845Z,98335.81
2023-04-18T21:20:27.311Z,98339.09
2023-04-18T21:23:16.174Z,98342.28
2023-04-18T21:26:05.079Z,98342.28
2023-04-18T21:28:59.464Z,98347.22
2023-04-18T21:31:49.328Z,98347.53
2023-04-18T21:34:38.342Z,98347.91
2023-04-18T21:37:28.948Z,98342.41
2023-04-18T21:40:18.232Z,98343.72
2023-04-18T21:43:07.145Z,98356.19
2023-04-18T21:45:56.658Z,98347.09
2023-04-18T21:48:48.559Z,98339.53
2023-04-18T21:51:37.603Z,98340.84
2023-04-18T21:54:27.900Z,98344.69
2023-04-18T21:57:16.921Z,98332.53
2023-04-18T22:00:10.263Z,98326.38
2023-04-18T22:03:02.041Z,98335.72
2023-04-18T22:05:52.223Z,98338.09
2023-04-18T22:08:42.096Z,98340.59
2023-04-18T22:11:33.377Z,98339.41
2023-04-18T22:14:22.589Z,98338.00
2023-04-18T22:17:11.486Z,98332.13
2023-04-18T22:20:00.341Z,98333.16
2023-04-18T22:22:49.562Z,98326.38
2023-04-18T22:25:38.581Z,98321.34
2023-04-18T22:28:28.970Z,98316.97
2023-04-18T22:31:17.866Z,98328.91
2023-04-18T22:34:06.807Z,98319.06
2023-04-18T22:36:55.778Z,98328.22
2023-04-18T22:39:44.686Z,98320.44
2023-04-18T22:42:34.855Z,98324.22
2023-04-18T22:45:25.908Z,98325.63
2023-04-18T22:48:14.842Z,98318.94
2023-04-18T22:51:03.751Z,98317.50
2023-04-18T22:53:52.581Z,98322.06
2023-04-18T22:56:41.809Z,98316.94
2023-04-18T22:59:30.681Z,98321.19
2023-04-18T23:02:21.069Z,98316.47
2023-04-18T23:05:10.816Z,98312.34
2023-04-18T23:08:00.704Z,98315.91
2023-04-18T23:10:49.911Z,98315.50
2023-04-18T23:13:38.721Z,98325.88
2023-04-18T23:16:28.161Z,98311.66
2023-04-18T23:19:18.500Z,98307.13
2023-04-18T23:22:07.303Z,98317.56
2023-04-18T23:24:56.756Z,98322.50
2023-04-18T23:27:45.641Z,98318.19
2023-04-18T23:30:37.788Z,98316.16
2023-04-18T23:33:26.605Z,98308.59
2023-04-18T23:36:16.803Z,98312.13
2023-04-18T23:39:05.722Z,98312.53
2023-04-18T23:41:54.724Z,98315.25
2023-04-18T23:44:43.605Z,98310.00
2023-04-18T23:47:32.632Z,98306.50
2023-04-18T23:50:21.488Z,98312.25
2023-04-18T23:53:11.823Z,98306.19
2023-04-18T23:56:00.678Z,98309.88
2023-04-18T23:58:49.870Z,98299.59
